Aeroporto :
LOGIN :

Iscrizione | Disclaimer

   EN    FR    IT 

 










Sommario :    VFR   VFR Marginale   IFR   IFR Intensivo   IFR Molto Intensivo
Visibilità : 
Base nubi : 
>= 8 km
>= 3000ft
5 / 8 km
1000 / 3000 ft
1500m / 5 km
500 / 1000 ft
800 / 1500m
200 / 500 ft
< 800m
< 200 ft
Simboli :   Temporali  Nebbia  Neve Forte  Precipitazioni Forti  Vento > 20 kt
SIGMETs :   Varie  Temporali  Ghiacco  Turbolenza  Onda orograficha  Ceneri Vulcaniche






- Altitudine del aeroporto : 17 ft
- Codice IATA : GRQ


EHGG - Groningen Eelde

ULTIMO METAR :
  • 191855Z AUTO 28003KT 230V310 9000 FEW019 03/02 Q1043 NOSIG

METARs OBSOLETI :
  • 191825Z AUTO 30003KT 9000 SCT019 BKN022 04/03 Q1043 NOSIG
  • 191755Z AUTO 30002KT 9999 BKN020 05/03 Q1043 NOSIG
  • 191725Z AUTO 28004KT 9999 BKN020 BKN025 BKN028 05/03 Q1042 NOSIG
  • 191655Z AUTO 30003KT 9999 FEW021 BKN025 04/03 Q1042 NOSIG
  • 191625Z AUTO 30003KT 9999 FEW022 SCT026 BKN029 05/03 Q1042 NOSIG
  • 191555Z AUTO 31005KT 9999 FEW023 BKN027 06/03 Q1041 NOSIG

TAF TAF EHGG
Valido dal 19 a 18 ore il 21 a 00 ore UTC


191712Z 1918/2024 30005KT 9999 SCT030
BECMG 1920/1923 5000 BR MIFG
BECMG 1923/2002 2000 BCFG
PROB40 2002/2010 0400 FG FZFG VV001
BECMG 2010/2013 8000 NSW
BECMG 2017/2020 5000 BR MIFG
BECMG 2022/2024 2000 BKN002



MetMap, La meteo Aeronautica in un colpo d'occhio ! - Copyright ORBIFLY Dicembre 2007 - Disclaimer

ORBIFLY MET'MAP TEAM :

Programmazione e sviluppo : Alexandra Zaïnal
Concezione : Baudouin d'Aumeries
Aiuto per la programmazione : Marc-Olivier Méhu
Supporto tecnico e logistico : Manuel Goepfert
Aiuto per la traduzione : Arnaldo La Scala

Contatto : metmap@orbifly.com




FONTI E CREDITI :

   NOAA